createdAt,value
2024-03-22T00:00:24.132Z,1025.74
2024-03-22T00:00:54.127Z,1025.84
2024-03-22T00:01:26.759Z,1025.84
2024-03-22T00:01:57.903Z,1025.63
2024-03-22T00:02:31.044Z,1025.63
2024-03-22T00:03:02.126Z,1025.63
2024-03-22T00:03:34.825Z,1025.63
2024-03-22T00:04:05.933Z,1025.84
2024-03-22T00:04:22.138Z,1025.84
2024-03-22T00:04:53.934Z,1025.63
2024-03-22T00:05:26.471Z,1025.63
2024-03-22T00:05:58.148Z,1025.63
2024-03-22T00:06:30.004Z,1025.63
2024-03-22T00:07:02.814Z,1025.63
2024-03-22T00:07:34.064Z,1025.63
2024-03-22T00:08:07.001Z,1025.53
2024-03-22T00:08:37.924Z,1025.53
2024-03-22T00:08:54.129Z,1025.63
2024-03-22T00:09:25.991Z,1025.63
2024-03-22T00:09:58.037Z,1025.63
2024-03-22T00:10:30.523Z,1025.63
2024-03-22T00:11:02.189Z,1025.53
2024-03-22T00:11:34.003Z,1025.53
2024-03-22T00:12:06.126Z,1025.53
2024-03-22T00:12:38.067Z,1025.53
2024-03-22T00:13:09.924Z,1025.33
2024-03-22T00:13:42.839Z,1025.74
2024-03-22T00:14:14.034Z,1025.74
2024-03-22T00:14:47.067Z,1025.43
2024-03-22T00:15:19.144Z,1025.43
2024-03-22T00:15:51.209Z,1025.63
2024-03-22T00:16:22.092Z,1025.63
2024-03-22T00:16:54.749Z,1025.23
2024-03-22T00:17:26.102Z,1025.23
2024-03-22T00:17:58.888Z,1025.63
2024-03-22T00:18:30.067Z,1025.63
2024-03-22T00:19:02.830Z,1025.53
2024-03-22T00:19:34.043Z,1025.53
2024-03-22T00:20:07.262Z,1025.53
2024-03-22T00:20:38.067Z,1025.53
2024-03-22T00:20:54.591Z,1025.53
2024-03-22T00:21:26.002Z,1025.53
2024-03-22T00:21:58.064Z,1025.53
2024-03-22T00:22:30.085Z,1025.53
2024-03-22T00:23:02.042Z,1025.43
2024-03-22T00:23:34.928Z,1025.43
2024-03-22T00:24:06.046Z,1025.43
2024-03-22T00:24:38.983Z,1025.43
2024-03-22T00:25:10.367Z,1025.43
2024-03-22T00:25:42.996Z,1025.43
2024-03-22T00:26:14.144Z,1025.43
2024-03-22T00:26:46.696Z,1025.33
2024-03-22T00:27:18.026Z,1025.33
2024-03-22T00:27:50.970Z,1025.43
2024-03-22T00:28:22.151Z,1025.43
2024-03-22T00:28:54.989Z,1025.53
2024-03-22T00:29:26.055Z,1025.53
2024-03-22T00:29:58.834Z,1025.33
2024-03-22T00:30:31.336Z,1025.33
2024-03-22T00:31:03.027Z,1025.43
2024-03-22T00:31:34.065Z,1025.43
2024-03-22T00:32:07.179Z,1025.43
2024-03-22T00:32:38.107Z,1025.43
2024-03-22T00:32:54.218Z,1025.13
2024-03-22T00:33:25.994Z,1025.13
2024-03-22T00:33:58.044Z,1025.53
2024-03-22T00:34:30.074Z,1025.53
2024-03-22T00:35:02.482Z,1025.43
2024-03-22T00:35:34.907Z,1025.43
2024-03-22T00:36:06.059Z,1025.43
2024-03-22T00:36:38.893Z,1025.43
2024-03-22T00:37:10.008Z,1025.33
2024-03-22T00:37:42.949Z,1025.23
2024-03-22T00:38:14.204Z,1025.23
2024-03-22T00:38:46.828Z,1025.33
2024-03-22T00:39:17.979Z,1025.33
2024-03-22T00:39:51.035Z,1025.13
2024-03-22T00:40:23.034Z,1025.13
2024-03-22T00:40:54.857Z,1025.13
2024-03-22T00:41:26.123Z,1025.13
2024-03-22T00:41:58.668Z,1025.23
2024-03-22T00:42:29.963Z,1025.23
2024-03-22T00:43:02.955Z,1025.23
2024-03-22T00:43:34.119Z,1025.23
2024-03-22T00:44:06.613Z,1025.43
2024-03-22T00:44:38.012Z,1025.43
2024-03-22T00:45:12.283Z,1025.23
2024-03-22T00:45:42.105Z,1025.23
2024-03-22T00:46:14.956Z,1025.23
2024-03-22T00:46:46.130Z,1025.02
2024-03-22T00:47:18.784Z,1025.02
2024-03-22T00:47:49.944Z,1025.33
2024-03-22T00:48:22.820Z,1025.33
2024-03-22T00:48:54.043Z,1025.43
2024-03-22T00:49:26.634Z,1025.43
2024-03-22T00:49:57.996Z,1025.23
2024-03-22T00:50:31.215Z,1025.23
2024-03-22T00:51:02.015Z,1025.23
2024-03-22T00:51:34.795Z,1025.23
2024-03-22T00:52:06.057Z,1025.23
2024-03-22T00:52:39.197Z,1025.23
2024-03-22T00:53:09.951Z,1025.13
2024-03-22T00:53:42.834Z,1024.92
2024-03-22T00:54:14.170Z,1024.92
2024-03-22T00:54:46.932Z,1025.02
2024-03-22T00:55:18.324Z,1025.02
2024-03-22T00:55:50.806Z,1025.02
2024-03-22T00:56:22.112Z,1025.02
2024-03-22T00:56:54.887Z,1025.43
2024-03-22T00:57:26.059Z,1025.43
2024-03-22T00:57:58.984Z,1025.43
2024-03-22T00:58:29.938Z,1025.43
2024-03-22T00:59:02.859Z,1025.23
2024-03-22T00:59:34.244Z,1025.23
2024-03-22T01:00:08.457Z,1025.13
2024-03-22T01:00:38.413Z,1025.13
2024-03-22T01:01:10.791Z,1025.13
2024-03-22T01:01:42.254Z,1024.92
2024-03-22T01:02:15.210Z,1024.92
2024-03-22T01:02:46.006Z,1025.23
2024-03-22T01:03:19.026Z,1025.23
2024-03-22T01:03:49.978Z,1025.13
2024-03-22T01:04:22.744Z,1025.13
2024-03-22T01:04:54.111Z,1025.13
2024-03-22T01:05:27.126Z,1025.13
2024-03-22T01:05:58.074Z,1025.02
2024-03-22T01:06:30.944Z,1025.02
2024-03-22T01:07:02.230Z,1025.13
2024-03-22T01:07:34.896Z,1025.13
2024-03-22T01:08:06.023Z,1025.13
2024-03-22T01:08:39.025Z,1025.13
2024-03-22T01:09:10.153Z,1025.13
2024-03-22T01:09:43.140Z,1025.02
2024-03-22T01:10:14.531Z,1025.02
2024-03-22T01:10:46.915Z,1025.13
2024-03-22T01:11:18.037Z,1025.13
2024-03-22T01:11:50.938Z,1024.82
2024-03-22T01:12:22.208Z,1024.82
2024-03-22T01:12:54.940Z,1024.92
2024-03-22T01:13:26.002Z,1024.92
2024-03-22T01:13:58.890Z,1024.92
2024-03-22T01:14:30.268Z,1024.92
2024-03-22T01:15:04.696Z,1025.13
2024-03-22T01:15:34.223Z,1025.13
2024-03-22T01:16:06.777Z,1025.02
2024-03-22T01:16:37.960Z,1025.02
2024-03-22T01:17:10.949Z,1025.13
2024-03-22T01:17:42.190Z,1025.02
2024-03-22T01:18:14.719Z,1025.02
2024-03-22T01:18:46.101Z,1024.72
2024-03-22T01:19:18.667Z,1024.72
2024-03-22T01:19:50.159Z,1025.02
2024-03-22T01:20:23.166Z,1025.02
2024-03-22T01:20:54.026Z,1025.02
2024-03-22T01:21:26.866Z,1025.02
2024-03-22T01:21:57.988Z,1025.13
2024-03-22T01:22:30.811Z,1025.13
2024-03-22T01:23:02.189Z,1025.02
2024-03-22T01:23:34.935Z,1025.02
2024-03-22T01:24:05.994Z,1025.02
2024-03-22T01:24:38.791Z,1025.02
2024-03-22T01:25:10.440Z,1024.92
2024-03-22T01:25:43.035Z,1024.92
2024-03-22T01:26:14.087Z,1024.92
2024-03-22T01:26:46.918Z,1024.92
2024-03-22T01:27:18.180Z,1024.92
2024-03-22T01:27:50.875Z,1025.23
2024-03-22T01:28:22.100Z,1025.23
2024-03-22T01:28:57.875Z,1024.92
2024-03-22T01:29:25.958Z,1024.92
2024-03-22T01:29:58.929Z,1025.13
2024-03-22T01:30:31.572Z,1025.13
2024-03-22T01:31:03.069Z,1025.02
2024-03-22T01:31:34.019Z,1025.02
2024-03-22T01:32:06.879Z,1024.92
2024-03-22T01:32:38.150Z,1024.92
2024-03-22T01:33:10.891Z,1025.13
2024-03-22T01:33:42.031Z,1025.13
2024-03-22T01:34:14.850Z,1025.13
2024-03-22T01:34:46.267Z,1025.13
2024-03-22T01:35:19.305Z,1025.13
2024-03-22T01:35:50.084Z,1024.92
2024-03-22T01:36:22.974Z,1024.92
2024-03-22T01:36:53.986Z,1025.13
2024-03-22T01:37:26.839Z,1025.13
2024-03-22T01:37:58.053Z,1025.02
2024-03-22T01:38:30.856Z,1025.02
2024-03-22T01:39:02.066Z,1025.23
2024-03-22T01:39:34.826Z,1025.23
2024-03-22T01:40:06.475Z,1025.13
2024-03-22T01:40:38.710Z,1025.13
2024-03-22T01:41:09.976Z,1025.02
2024-03-22T01:41:42.908Z,1025.02
2024-03-22T01:42:14.089Z,1025.02
2024-03-22T01:42:46.919Z,1024.92
2024-03-22T01:43:18.175Z,1024.92
2024-03-22T01:43:51.016Z,1024.92
2024-03-22T01:44:21.997Z,1024.92
2024-03-22T01:44:54.823Z,1024.92
2024-03-22T01:45:27.509Z,1024.92
2024-03-22T01:45:59.037Z,1024.82
2024-03-22T01:46:30.094Z,1024.82
2024-03-22T01:47:02.921Z,1024.82
2024-03-22T01:47:34.178Z,1024.82
2024-03-22T01:48:06.904Z,1025.13
2024-03-22T01:48:37.998Z,1025.13
2024-03-22T01:49:10.946Z,1025.13
2024-03-22T01:49:41.940Z,1025.02
2024-03-22T01:50:15.166Z,1025.02
2024-03-22T01:50:46.127Z,1025.02
2024-03-22T01:51:18.763Z,1025.02
2024-03-22T01:51:50.096Z,1025.02
2024-03-22T01:52:22.891Z,1025.02
2024-03-22T01:52:54.220Z,1024.92
2024-03-22T01:53:26.772Z,1024.92
2024-03-22T01:53:58.087Z,1025.02
2024-03-22T01:54:31.031Z,1025.02
2024-03-22T01:55:02.489Z,1024.92
2024-03-22T01:55:34.958Z,1024.92
2024-03-22T01:56:06.086Z,1024.92
2024-03-22T01:56:38.982Z,1024.92
2024-03-22T01:57:09.999Z,1024.72
2024-03-22T01:57:43.124Z,1025.02
2024-03-22T01:58:14.200Z,1025.02
2024-03-22T01:58:46.834Z,1024.82
2024-03-22T01:59:18.053Z,1024.82
2024-03-22T01:59:50.986Z,1024.92
2024-03-22T02:00:23.412Z,1024.92
2024-03-22T02:00:54.926Z,1025.02
2024-03-22T02:01:26.126Z,1025.02
2024-03-22T02:01:58.681Z,1024.92
2024-03-22T02:02:30.022Z,1024.92
2024-03-22T02:03:03.162Z,1024.92
2024-03-22T02:03:34.117Z,1024.92
2024-03-22T02:04:06.700Z,1024.52
2024-03-22T02:04:38.084Z,1024.52
2024-03-22T02:05:11.317Z,1024.82
2024-03-22T02:05:42.010Z,1024.72
2024-03-22T02:06:14.891Z,1024.72
2024-03-22T02:06:46.123Z,1024.82
2024-03-22T02:07:19.047Z,1024.82
2024-03-22T02:07:50.113Z,1024.72
2024-03-22T02:08:22.844Z,1024.72
2024-03-22T02:08:54.155Z,1024.72
2024-03-22T02:09:26.949Z,1024.72
2024-03-22T02:09:58.091Z,1024.72
2024-03-22T02:10:31.378Z,1024.72
2024-03-22T02:11:02.219Z,1024.52
2024-03-22T02:11:34.821Z,1024.52
2024-03-22T02:12:06.180Z,1024.52
2024-03-22T02:12:39.016Z,1024.52
2024-03-22T02:13:10.016Z,1024.52
2024-03-22T02:13:42.870Z,1024.41
2024-03-22T02:14:14.126Z,1024.41
2024-03-22T02:14:46.904Z,1024.62
2024-03-22T02:15:19.394Z,1024.62
2024-03-22T02:15:51.342Z,1024.52
2024-03-22T02:16:22.157Z,1024.52
2024-03-22T02:16:54.777Z,1024.52
2024-03-22T02:17:26.004Z,1024.52
2024-03-22T02:17:58.861Z,1024.31
2024-03-22T02:18:30.154Z,1024.31
2024-03-22T02:19:02.839Z,1024.52
2024-03-22T02:19:34.129Z,1024.52
2024-03-22T02:20:08.076Z,1024.62
2024-03-22T02:20:38.048Z,1024.62
2024-03-22T02:20:54.653Z,1024.52
2024-03-22T02:21:25.969Z,1024.52
2024-03-22T02:21:58.099Z,1024.11
2024-03-22T02:22:30.095Z,1024.11
2024-03-22T02:23:02.209Z,1024.52
2024-03-22T02:23:34.126Z,1024.52
2024-03-22T02:24:06.153Z,1024.41
2024-03-22T02:24:38.222Z,1024.41
2024-03-22T02:25:10.405Z,1024.31
2024-03-22T02:25:42.927Z,1024.31
2024-03-22T02:26:14.160Z,1024.31
2024-03-22T02:26:46.778Z,1024.31
2024-03-22T02:27:18.051Z,1024.31
2024-03-22T02:27:51.074Z,1024.31
2024-03-22T02:28:22.138Z,1024.31
2024-03-22T02:28:54.814Z,1024.52
2024-03-22T02:29:26.010Z,1024.52
2024-03-22T02:29:58.747Z,1024.52
2024-03-22T02:30:31.727Z,1024.52
2024-03-22T02:31:02.887Z,1024.21
2024-03-22T02:31:34.064Z,1024.21
2024-03-22T02:32:07.127Z,1024.41
2024-03-22T02:32:38.020Z,1024.41
2024-03-22T02:33:10.805Z,1024.52
2024-03-22T02:33:42.274Z,1024.62
2024-03-22T02:34:14.819Z,1024.62
2024-03-22T02:34:55.826Z,1024.41
2024-03-22T02:35:19.289Z,1024.41
2024-03-22T02:35:50.345Z,1024.52
2024-03-22T02:36:24.378Z,1024.52
2024-03-22T02:36:54.104Z,1024.52
2024-03-22T02:37:27.047Z,1024.52
2024-03-22T02:37:58.119Z,1024.31
2024-03-22T02:38:30.881Z,1024.31
2024-03-22T02:39:02.204Z,1024.41
2024-03-22T02:39:35.086Z,1024.41
2024-03-22T02:40:06.360Z,1024.41
2024-03-22T02:40:38.809Z,1024.41
2024-03-22T02:41:10.130Z,1024.41
2024-03-22T02:41:42.778Z,1024.41
2024-03-22T02:42:14.086Z,1024.41
2024-03-22T02:42:46.842Z,1024.52
2024-03-22T02:43:18.275Z,1024.52
2024-03-22T02:43:50.935Z,1024.52
2024-03-22T02:44:22.059Z,1024.52
2024-03-22T02:44:54.835Z,1024.31
2024-03-22T02:45:27.360Z,1024.31
2024-03-22T02:45:58.942Z,1024.21
2024-03-22T02:46:30.141Z,1024.21
2024-03-22T02:47:03.042Z,1024.11
2024-03-22T02:47:34.082Z,1024.11
2024-03-22T02:48:07.001Z,1024.52
2024-03-22T02:48:38.190Z,1024.52
2024-03-22T02:49:10.711Z,1024.21
2024-03-22T02:49:42.076Z,1024.41
2024-03-22T02:50:15.401Z,1024.41
2024-03-22T02:50:46.022Z,1024.31
2024-03-22T02:51:18.899Z,1024.31
2024-03-22T02:51:50.266Z,1024.31
2024-03-22T02:52:22.773Z,1024.31
2024-03-22T02:52:54.198Z,1024.31
2024-03-22T02:53:27.064Z,1024.31
2024-03-22T02:53:58.186Z,1024.21
2024-03-22T02:54:30.827Z,1024.21
2024-03-22T02:55:02.655Z,1024.21
2024-03-22T02:55:34.797Z,1024.21
2024-03-22T02:56:06.006Z,1024.21
2024-03-22T02:56:38.931Z,1024.21
2024-03-22T02:57:10.144Z,1024.31
2024-03-22T02:57:43.130Z,1024.31
2024-03-22T02:58:14.166Z,1024.31
2024-03-22T02:58:46.735Z,1024.11
2024-03-22T02:59:18.183Z,1024.11
2024-03-22T02:59:50.742Z,1024.31
2024-03-22T03:00:24.457Z,1024.31
2024-03-22T03:00:55.327Z,1024.11
2024-03-22T03:01:26.221Z,1024.11
2024-03-22T03:01:58.914Z,1024.11
2024-03-22T03:02:30.471Z,1024.11
2024-03-22T03:03:03.594Z,1024.21
2024-03-22T03:03:34.412Z,1024.21
2024-03-22T03:04:07.418Z,1024.31
2024-03-22T03:04:38.626Z,1024.31
2024-03-22T03:05:12.372Z,1023.94
2024-03-22T03:05:42.383Z,1024.21
2024-03-22T03:06:15.092Z,1024.21
2024-03-22T03:06:46.367Z,1024.01
2024-03-22T03:07:19.073Z,1024.01
2024-03-22T03:07:50.304Z,1024.01
2024-03-22T03:08:23.135Z,1024.01
2024-03-22T03:08:54.201Z,1024.01
2024-03-22T03:09:26.970Z,1024.01
2024-03-22T03:09:58.479Z,1024.11
2024-03-22T03:10:31.486Z,1024.11
2024-03-22T03:11:02.046Z,1024.01
2024-03-22T03:11:34.968Z,1024.01
2024-03-22T03:12:06.223Z,1024.01
2024-03-22T03:12:38.921Z,1024.01
2024-03-22T03:13:10.047Z,1024.11
2024-03-22T03:13:43.019Z,1024.01
2024-03-22T03:14:14.234Z,1024.01
2024-03-22T03:14:47.001Z,1024.01
2024-03-22T03:15:19.445Z,1024.01
2024-03-22T03:15:51.129Z,1024.01
2024-03-22T03:16:22.036Z,1024.01
2024-03-22T03:16:54.861Z,1024.01
2024-03-22T03:17:26.080Z,1024.01
2024-03-22T03:17:58.997Z,1024.11
2024-03-22T03:18:30.137Z,1024.11
2024-03-22T03:19:02.943Z,1023.94
2024-03-22T03:19:34.117Z,1023.94
2024-03-22T03:20:07.138Z,1024.01
2024-03-22T03:20:38.151Z,1024.01
2024-03-22T03:21:10.987Z,1024.01
2024-03-22T03:21:42.124Z,1023.94
2024-03-22T03:22:14.974Z,1023.94
2024-03-22T03:22:46.197Z,1024.01
2024-03-22T03:23:19.022Z,1024.01
2024-03-22T03:23:50.197Z,1024.01
2024-03-22T03:24:22.802Z,1024.01
2024-03-22T03:24:54.235Z,1023.84
2024-03-22T03:25:27.420Z,1023.84
2024-03-22T03:25:58.103Z,1023.84
2024-03-22T03:26:31.010Z,1023.84
2024-03-22T03:27:02.257Z,1024.01
2024-03-22T03:27:34.884Z,1024.01
2024-03-22T03:28:06.157Z,1024.11
2024-03-22T03:28:38.930Z,1024.11
2024-03-22T03:29:10.036Z,1024.01
2024-03-22T03:29:42.858Z,1024.21
2024-03-22T03:30:15.347Z,1024.21
2024-03-22T03:30:46.779Z,1023.94
2024-03-22T03:31:18.023Z,1023.94
2024-03-22T03:31:50.756Z,1024.01
2024-03-22T03:32:22.219Z,1024.01
2024-03-22T03:32:54.849Z,1024.11
2024-03-22T03:33:26.018Z,1024.11
2024-03-22T03:33:58.865Z,1024.11
2024-03-22T03:34:30.364Z,1024.11
2024-03-22T03:35:03.265Z,1023.94
2024-03-22T03:35:34.129Z,1023.94
2024-03-22T03:36:06.800Z,1024.11
2024-03-22T03:36:38.061Z,1024.11
2024-03-22T03:37:10.933Z,1024.11
2024-03-22T03:37:42.203Z,1024.11
2024-03-22T03:38:14.833Z,1024.11
2024-03-22T03:38:46.023Z,1024.01
2024-03-22T03:39:18.839Z,1024.01
2024-03-22T03:39:50.191Z,1024.21
2024-03-22T03:40:23.138Z,1024.21
2024-03-22T03:40:54.214Z,1024.01
2024-03-22T03:41:26.973Z,1024.01
2024-03-22T03:41:58.103Z,1023.94
2024-03-22T03:42:30.913Z,1023.94
2024-03-22T03:43:02.192Z,1024.11
2024-03-22T03:43:34.816Z,1024.11
2024-03-22T03:44:06.010Z,1023.94
2024-03-22T03:44:38.955Z,1023.94
2024-03-22T03:45:11.681Z,1023.94
2024-03-22T03:45:42.968Z,1024.21
2024-03-22T03:46:14.093Z,1024.21
2024-03-22T03:46:46.794Z,1024.01
2024-03-22T03:47:18.230Z,1024.01
2024-03-22T03:47:51.031Z,1024.01
2024-03-22T03:48:22.151Z,1024.01
2024-03-22T03:48:54.943Z,1024.11
2024-03-22T03:49:26.330Z,1024.11
2024-03-22T03:49:58.767Z,1024.01
2024-03-22T03:50:30.559Z,1024.01
2024-03-22T03:51:02.997Z,1024.11
2024-03-22T03:51:34.011Z,1024.11
2024-03-22T03:52:06.802Z,1024.01
2024-03-22T03:52:38.192Z,1024.01
2024-03-22T03:53:10.734Z,1023.94
2024-03-22T03:53:42.076Z,1024.21
2024-03-22T03:54:15.017Z,1024.21
2024-03-22T03:54:46.218Z,1023.94
2024-03-22T03:55:19.122Z,1023.94
2024-03-22T03:55:50.078Z,1024.01
2024-03-22T03:56:22.807Z,1024.01
2024-03-22T03:56:54.108Z,1023.94
2024-03-22T03:57:26.915Z,1023.94
2024-03-22T03:57:58.185Z,1024.01
2024-03-22T03:58:30.933Z,1024.01
2024-03-22T03:59:02.135Z,1024.11
2024-03-22T03:59:35.042Z,1024.11
2024-03-22T04:00:07.984Z,1024.31
2024-03-22T04:00:39.370Z,1024.31
2024-03-22T04:01:10.111Z,1023.94
2024-03-22T04:01:42.795Z,1024.01
2024-03-22T04:02:14.316Z,1024.01
2024-03-22T04:02:46.883Z,1024.01
2024-03-22T04:03:18.116Z,1024.01
2024-03-22T04:03:50.867Z,1023.94
2024-03-22T04:04:22.022Z,1023.94
2024-03-22T04:04:56.413Z,1024.11
2024-03-22T04:05:26.506Z,1024.11
2024-03-22T04:05:59.130Z,1023.94
2024-03-22T04:06:30.086Z,1023.94
2024-03-22T04:07:02.822Z,1024.11
2024-03-22T04:07:34.204Z,1024.11
2024-03-22T04:08:06.930Z,1024.11
2024-03-22T04:08:38.095Z,1024.11
2024-03-22T04:09:10.774Z,1023.84
2024-03-22T04:09:42.218Z,1024.11
2024-03-22T04:10:15.238Z,1024.11
2024-03-22T04:10:46.139Z,1023.84
2024-03-22T04:11:18.940Z,1023.84
2024-03-22T04:11:50.012Z,1024.01
2024-03-22T04:12:22.829Z,1024.01
2024-03-22T04:12:54.195Z,1024.11
2024-03-22T04:13:26.957Z,1024.11
2024-03-22T04:13:58.276Z,1024.11
2024-03-22T04:14:31.010Z,1024.11
2024-03-22T04:15:03.941Z,1024.01
2024-03-22T04:15:35.146Z,1024.01
2024-03-22T04:16:06.078Z,1024.01
2024-03-22T04:16:38.933Z,1024.01
2024-03-22T04:17:10.227Z,1024.11
2024-03-22T04:17:42.967Z,1023.94
2024-03-22T04:18:14.297Z,1023.94
2024-03-22T04:18:46.842Z,1023.94
2024-03-22T04:19:17.992Z,1023.94
2024-03-22T04:19:50.994Z,1024.01
2024-03-22T04:20:22.654Z,1024.01
2024-03-22T04:20:55.066Z,1024.01
2024-03-22T04:21:26.042Z,1024.01
2024-03-22T04:21:59.595Z,1023.94
2024-03-22T04:22:30.184Z,1023.94
2024-03-22T04:23:02.913Z,1024.01
2024-03-22T04:23:34.105Z,1024.01
2024-03-22T04:24:07.053Z,1024.01
2024-03-22T04:24:38.087Z,1024.01
2024-03-22T04:24:54.265Z,1023.94
2024-03-22T04:25:26.439Z,1023.94
2024-03-22T04:25:58.308Z,1023.84
2024-03-22T04:26:30.995Z,1023.84
2024-03-22T04:27:02.171Z,1023.94
2024-03-22T04:27:34.948Z,1023.94
2024-03-22T04:28:06.102Z,1023.74
2024-03-22T04:28:39.076Z,1023.74
2024-03-22T04:29:10.240Z,1024.01
2024-03-22T04:29:42.974Z,1023.84
2024-03-22T04:30:15.625Z,1023.84
2024-03-22T04:30:47.042Z,1023.94
2024-03-22T04:31:18.102Z,1023.94
2024-03-22T04:31:50.862Z,1023.74
2024-03-22T04:32:22.288Z,1023.74
2024-03-22T04:32:55.012Z,1024.01
2024-03-22T04:33:26.150Z,1024.01
2024-03-22T04:33:58.912Z,1024.01
2024-03-22T04:34:30.188Z,1024.01
2024-03-22T04:35:03.831Z,1024.01
2024-03-22T04:35:34.106Z,1024.01
2024-03-22T04:36:07.018Z,1024.11
2024-03-22T04:36:37.996Z,1024.11
2024-03-22T04:37:11.102Z,1023.74
2024-03-22T04:37:42.166Z,1024.31
2024-03-22T04:38:15.034Z,1024.31
2024-03-22T04:38:46.091Z,1024.01
2024-03-22T04:39:18.801Z,1024.01
2024-03-22T04:39:50.154Z,1024.11
2024-03-22T04:40:23.074Z,1024.11
2024-03-22T04:40:54.109Z,1024.21
2024-03-22T04:41:27.172Z,1024.21
2024-03-22T04:41:58.266Z,1024.01
2024-03-22T04:42:30.972Z,1024.01
2024-03-22T04:43:02.251Z,1023.94
2024-03-22T04:43:34.834Z,1023.94
2024-03-22T04:44:06.245Z,1024.11
2024-03-22T04:44:39.083Z,1024.11
2024-03-22T04:45:11.504Z,1024.11
2024-03-22T04:45:43.217Z,1024.11
2024-03-22T04:46:14.000Z,1024.11
2024-03-22T04:46:47.023Z,1024.01
2024-03-22T04:47:18.224Z,1024.01
2024-03-22T04:47:50.742Z,1023.94
2024-03-22T04:48:22.117Z,1023.94
2024-03-22T04:48:54.799Z,1024.11
2024-03-22T04:49:26.004Z,1024.11
2024-03-22T04:49:58.751Z,1024.21
2024-03-22T04:50:30.677Z,1024.21
2024-03-22T04:51:02.851Z,1024.01
2024-03-22T04:51:34.147Z,1024.01
2024-03-22T04:52:07.140Z,1024.01
2024-03-22T04:52:38.156Z,1024.01
2024-03-22T04:53:11.116Z,1024.01
2024-03-22T04:53:43.904Z,1024.01
2024-03-22T04:54:14.864Z,1024.01
2024-03-22T04:54:46.222Z,1023.94
2024-03-22T04:55:19.200Z,1023.94
2024-03-22T04:55:50.156Z,1024.11
2024-03-22T04:56:23.194Z,1024.11
2024-03-22T04:56:54.110Z,1024.01
2024-03-22T04:57:27.032Z,1024.01
2024-03-22T04:57:58.176Z,1024.21
2024-03-22T04:58:31.160Z,1024.21
2024-03-22T04:59:02.280Z,1023.84
2024-03-22T04:59:34.947Z,1023.84
2024-03-22T05:00:08.663Z,1024.01
2024-03-22T05:00:39.344Z,1024.01
2024-03-22T05:01:10.074Z,1024.11
2024-03-22T05:01:43.168Z,1024.01
2024-03-22T05:02:14.295Z,1024.01
2024-03-22T05:02:46.953Z,1023.74
2024-03-22T05:03:18.191Z,1023.74
2024-03-22T05:03:51.189Z,1024.01
2024-03-22T05:04:22.088Z,1024.01
2024-03-22T05:04:54.880Z,1023.84
2024-03-22T05:05:27.225Z,1023.84
2024-03-22T05:05:59.242Z,1023.94
2024-03-22T05:06:30.570Z,1023.94
2024-03-22T05:07:03.565Z,1023.74
2024-03-22T05:07:34.512Z,1023.74
2024-03-22T05:08:07.292Z,1023.84
2024-03-22T05:08:38.274Z,1023.84
2024-03-22T05:09:11.150Z,1023.94
2024-03-22T05:09:42.331Z,1023.74
2024-03-22T05:10:15.837Z,1023.74
2024-03-22T05:10:46.363Z,1024.01
2024-03-22T05:11:19.466Z,1024.01
2024-03-22T05:11:50.258Z,1023.84
2024-03-22T05:12:23.320Z,1023.84
2024-03-22T05:12:54.308Z,1023.74
2024-03-22T05:13:27.858Z,1023.74
2024-03-22T05:13:59.308Z,1023.94
2024-03-22T05:14:31.412Z,1023.94
2024-03-22T05:15:04.210Z,1023.94
2024-03-22T05:15:35.204Z,1023.94
2024-03-22T05:16:06.183Z,1023.94
2024-03-22T05:16:38.907Z,1023.94
2024-03-22T05:17:10.225Z,1023.94
2024-03-22T05:17:43.409Z,1023.84
2024-03-22T05:18:14.390Z,1023.84
2024-03-22T05:18:47.349Z,1023.94
2024-03-22T05:19:18.386Z,1023.94
2024-03-22T05:19:51.097Z,1023.94
2024-03-22T05:20:22.910Z,1023.94
2024-03-22T05:20:55.150Z,1024.01
2024-03-22T05:21:26.406Z,1024.01
2024-03-22T05:21:59.236Z,1023.74
2024-03-22T05:22:30.497Z,1023.74
2024-03-22T05:23:03.486Z,1023.84
2024-03-22T05:23:34.450Z,1023.84
2024-03-22T05:24:07.179Z,1023.94
2024-03-22T05:24:38.303Z,1023.94
2024-03-22T05:25:11.545Z,1023.84
2024-03-22T05:25:42.406Z,1023.84
2024-03-22T05:26:15.274Z,1023.84
2024-03-22T05:26:46.409Z,1023.64
2024-03-22T05:27:19.170Z,1023.64
2024-03-22T05:27:50.525Z,1023.94
2024-03-22T05:28:23.055Z,1023.94
2024-03-22T05:28:54.328Z,1023.84
2024-03-22T05:29:27.251Z,1023.84
2024-03-22T05:29:58.458Z,1023.74
2024-03-22T05:30:32.643Z,1023.74
2024-03-22T05:31:02.463Z,1023.74
2024-03-22T05:31:35.232Z,1023.74
2024-03-22T05:32:06.333Z,1023.84
2024-03-22T05:32:39.493Z,1023.84
2024-03-22T05:33:10.394Z,1023.74
2024-03-22T05:33:43.323Z,1023.74
2024-03-22T05:34:14.397Z,1023.74
2024-03-22T05:34:47.508Z,1023.74
2024-03-22T05:35:18.786Z,1023.74
2024-03-22T05:35:51.162Z,1023.74
2024-03-22T05:36:22.337Z,1023.74
2024-03-22T05:36:55.183Z,1023.74
2024-03-22T05:37:26.435Z,1023.74
2024-03-22T05:37:59.263Z,1023.53
2024-03-22T05:38:30.463Z,1023.53
2024-03-22T05:39:03.391Z,1023.64
2024-03-22T05:39:34.282Z,1023.64
2024-03-22T05:40:07.511Z,1023.84
2024-03-22T05:40:38.412Z,1023.84
2024-03-22T05:41:11.171Z,1023.53
2024-03-22T05:41:42.331Z,1023.84
2024-03-22T05:42:15.426Z,1023.84
2024-03-22T05:42:46.432Z,1023.64
2024-03-22T05:43:19.316Z,1023.64
2024-03-22T05:43:50.352Z,1023.64
2024-03-22T05:44:23.217Z,1023.64
2024-03-22T05:44:54.455Z,1023.74
2024-03-22T05:45:28.685Z,1023.74
2024-03-22T05:45:58.512Z,1023.84
2024-03-22T05:46:31.260Z,1023.84
2024-03-22T05:47:02.288Z,1023.74
2024-03-22T05:48:06.468Z,1023.64
2024-03-22T05:48:39.226Z,1023.64
2024-03-22T05:49:10.361Z,1023.74
2024-03-22T05:49:43.166Z,1023.53
2024-03-22T05:50:14.795Z,1023.53
2024-03-22T05:50:47.213Z,1023.64
2024-03-22T05:51:18.369Z,1023.64
2024-03-22T05:51:51.164Z,1023.74
2024-03-22T05:52:22.322Z,1023.74
2024-03-22T05:52:55.152Z,1023.64
2024-03-22T05:53:26.387Z,1023.64
2024-03-22T05:53:59.164Z,1023.43
2024-03-22T05:54:30.471Z,1023.43
2024-03-22T05:55:03.812Z,1023.64
2024-03-22T05:55:34.465Z,1023.64
2024-03-22T05:56:07.068Z,1023.53
2024-03-22T05:56:38.328Z,1023.53
2024-03-22T05:57:11.480Z,1023.43
2024-03-22T05:57:42.407Z,1023.64
2024-03-22T05:58:16.418Z,1023.64
2024-03-22T05:58:46.438Z,1023.64
2024-03-22T05:59:19.292Z,1023.64
2024-03-22T05:59:50.417Z,1023.33
2024-03-22T06:00:24.476Z,1023.33
2024-03-22T06:00:54.540Z,1023.33
2024-03-22T06:01:27.210Z,1023.33
2024-03-22T06:01:58.348Z,1023.43
2024-03-22T06:02:31.159Z,1023.43
2024-03-22T06:03:02.545Z,1023.43
2024-03-22T06:03:35.009Z,1023.43
2024-03-22T06:04:06.488Z,1023.64
2024-03-22T06:04:22.568Z,1023.64
2024-03-22T06:04:54.420Z,1023.53
2024-03-22T06:05:26.802Z,1023.53
2024-03-22T06:05:58.498Z,1023.43
2024-03-22T06:06:30.377Z,1023.43
2024-03-22T06:07:03.153Z,1023.74
2024-03-22T06:07:34.437Z,1023.74
2024-03-22T06:08:07.177Z,1023.53
2024-03-22T06:08:38.374Z,1023.53
2024-03-22T06:09:11.130Z,1023.64
2024-03-22T06:09:42.461Z,1023.64
2024-03-22T06:10:15.603Z,1023.64
2024-03-22T06:10:46.442Z,1023.64
2024-03-22T06:11:19.008Z,1023.64
2024-03-22T06:11:50.340Z,1023.43
2024-03-22T06:12:23.288Z,1023.43
2024-03-22T06:12:54.464Z,1023.33
2024-03-22T06:13:27.252Z,1023.33
2024-03-22T06:13:58.380Z,1023.33
2024-03-22T06:14:31.275Z,1023.33
2024-03-22T06:15:04.257Z,1023.13
2024-03-22T06:15:35.535Z,1023.13
2024-03-22T06:16:06.433Z,1023.43
2024-03-22T06:16:23.239Z,1023.43
2024-03-22T06:16:54.288Z,1023.33
2024-03-22T06:17:26.385Z,1023.33
2024-03-22T06:17:58.603Z,1023.43
2024-03-22T06:18:30.408Z,1023.43
2024-03-22T06:19:03.229Z,1023.43
2024-03-22T06:19:34.413Z,1023.43
2024-03-22T06:20:07.483Z,1023.23
2024-03-22T06:20:38.481Z,1023.23
2024-03-22T06:21:11.428Z,1023.23
2024-03-22T06:21:42.476Z,1023.53
2024-03-22T06:22:15.089Z,1023.53
2024-03-22T06:22:46.418Z,1023.13
2024-03-22T06:23:19.409Z,1023.13
2024-03-22T06:23:50.350Z,1023.33
2024-03-22T06:24:23.117Z,1023.33
2024-03-22T06:24:54.514Z,1023.23
2024-03-22T06:25:27.477Z,1023.23